sensor_id;sensor_type;location;lat;lon;timestamp;P1;durP1;ratioP1;P2;durP2;ratioP2
51594;SDS011;37677;53.254;6.594;2022-09-27T00:00:30;10.32;;;1.42;;
51594;SDS011;37677;53.254;6.594;2022-09-27T00:02:56;4.85;;;1.63;;
51594;SDS011;37677;53.254;6.594;2022-09-27T00:05:22;6.90;;;1.40;;
51594;SDS011;37677;53.254;6.594;2022-09-27T00:07:48;7.32;;;1.13;;
51594;SDS011;37677;53.254;6.594;2022-09-27T00:10:14;8.18;;;1.77;;
51594;SDS011;37677;53.254;6.594;2022-09-27T00:12:40;8.40;;;1.60;;
51594;SDS011;37677;53.254;6.594;2022-09-27T00:15:06;4.35;;;1.15;;
51594;SDS011;37677;53.254;6.594;2022-09-27T00:17:34;5.93;;;1.10;;
51594;SDS011;37677;53.254;6.594;2022-09-27T00:20:00;5.28;;;1.10;;
51594;SDS011;37677;53.254;6.594;2022-09-27T00:22:27;6.93;;;1.40;;
51594;SDS011;37677;53.254;6.594;2022-09-27T00:24:53;3.75;;;1.00;;
51594;SDS011;37677;53.254;6.594;2022-09-27T00:27:19;9.75;;;1.40;;
51594;SDS011;37677;53.254;6.594;2022-09-27T00:29:45;5.55;;;1.35;;
51594;SDS011;37677;53.254;6.594;2022-09-27T00:32:12;5.78;;;1.58;;
51594;SDS011;37677;53.254;6.594;2022-09-27T00:34:38;7.78;;;1.50;;
51594;SDS011;37677;53.254;6.594;2022-09-27T00:37:04;6.28;;;1.40;;
51594;SDS011;37677;53.254;6.594;2022-09-27T00:39:30;12.45;;;1.77;;
51594;SDS011;37677;53.254;6.594;2022-09-27T00:41:56;8.20;;;1.70;;
51594;SDS011;37677;53.254;6.594;2022-09-27T00:49:37;9.52;;;1.50;;
51594;SDS011;37677;53.254;6.594;2022-09-27T00:52:12;10.60;;;1.52;;
51594;SDS011;37677;53.254;6.594;2022-09-27T00:54:45;7.90;;;1.55;;
51594;SDS011;37677;53.254;6.594;2022-09-27T00:57:15;6.60;;;1.20;;
51594;SDS011;37677;53.254;6.594;2022-09-27T00:59:44;9.70;;;1.48;;
51594;SDS011;37677;53.254;6.594;2022-09-27T01:02:13;12.07;;;1.85;;
51594;SDS011;37677;53.254;6.594;2022-09-27T01:04:39;6.05;;;1.45;;
51594;SDS011;37677;53.254;6.594;2022-09-27T01:07:07;10.77;;;1.83;;
51594;SDS011;37677;53.254;6.594;2022-09-27T01:09:33;6.25;;;1.45;;
51594;SDS011;37677;53.254;6.594;2022-09-27T01:28:54;7.20;;;2.10;;
51594;SDS011;37677;53.254;6.594;2022-09-27T01:36:52;6.00;;;1.40;;
51594;SDS011;37677;53.254;6.594;2022-09-27T01:39:21;8.50;;;2.20;;
51594;SDS011;37677;53.254;6.594;2022-09-27T01:42:03;6.60;;;1.13;;
51594;SDS011;37677;53.254;6.594;2022-09-27T01:44:39;11.98;;;1.70;;
51594;SDS011;37677;53.254;6.594;2022-09-27T01:47:19;6.60;;;1.50;;
51594;SDS011;37677;53.254;6.594;2022-09-27T01:52:19;9.75;;;1.92;;
51594;SDS011;37677;53.254;6.594;2022-09-27T01:54:52;5.57;;;1.30;;
51594;SDS011;37677;53.254;6.594;2022-09-27T01:57:22;4.70;;;1.15;;
51594;SDS011;37677;53.254;6.594;2022-09-27T01:59:52;9.82;;;1.42;;
51594;SDS011;37677;53.254;6.594;2022-09-27T02:02:32;8.27;;;1.48;;
51594;SDS011;37677;53.254;6.594;2022-09-27T02:05:04;8.73;;;1.40;;
51594;SDS011;37677;53.254;6.594;2022-09-27T02:07:51;9.25;;;1.52;;
51594;SDS011;37677;53.254;6.594;2022-09-27T02:10:24;6.78;;;1.38;;
51594;SDS011;37677;53.254;6.594;2022-09-27T02:13:06;9.25;;;1.42;;
51594;SDS011;37677;53.254;6.594;2022-09-27T02:18:41;6.63;;;1.15;;
51594;SDS011;37677;53.254;6.594;2022-09-27T02:21:14;8.50;;;1.45;;
51594;SDS011;37677;53.254;6.594;2022-09-27T02:23:46;5.53;;;1.55;;
51594;SDS011;37677;53.254;6.594;2022-09-27T02:26:21;4.97;;;1.15;;
51594;SDS011;37677;53.254;6.594;2022-09-27T02:29:12;5.82;;;1.20;;
51594;SDS011;37677;53.254;6.594;2022-09-27T02:31:42;3.20;;;0.93;;
51594;SDS011;37677;53.254;6.594;2022-09-27T02:34:21;3.45;;;0.90;;
51594;SDS011;37677;53.254;6.594;2022-09-27T02:36:49;5.22;;;1.13;;
51594;SDS011;37677;53.254;6.594;2022-09-27T02:39:17;3.72;;;0.90;;
51594;SDS011;37677;53.254;6.594;2022-09-27T02:41:44;7.07;;;1.00;;
51594;SDS011;37677;53.254;6.594;2022-09-27T02:44:10;4.38;;;0.95;;
51594;SDS011;37677;53.254;6.594;2022-09-27T02:57:47;5.05;;;1.00;;
51594;SDS011;37677;53.254;6.594;2022-09-27T03:00:29;6.60;;;1.15;;
51594;SDS011;37677;53.254;6.594;2022-09-27T03:03:14;5.28;;;1.48;;
51594;SDS011;37677;53.254;6.594;2022-09-27T03:08:42;3.20;;;1.00;;
51594;SDS011;37677;53.254;6.594;2022-09-27T03:11:09;8.27;;;1.40;;
51594;SDS011;37677;53.254;6.594;2022-09-27T03:13:35;3.00;;;1.13;;
51594;SDS011;37677;53.254;6.594;2022-09-27T03:16:03;7.10;;;1.30;;
51594;SDS011;37677;53.254;6.594;2022-09-27T03:18:30;7.93;;;1.40;;
51594;SDS011;37677;53.254;6.594;2022-09-27T03:20:56;5.43;;;1.10;;
51594;SDS011;37677;53.254;6.594;2022-09-27T03:23:22;4.88;;;1.25;;
51594;SDS011;37677;53.254;6.594;2022-09-27T03:25:48;4.53;;;1.05;;
51594;SDS011;37677;53.254;6.594;2022-09-27T03:28:14;3.63;;;0.90;;
51594;SDS011;37677;53.254;6.594;2022-09-27T03:30:40;4.88;;;0.93;;
51594;SDS011;37677;53.254;6.594;2022-09-27T03:33:07;4.55;;;1.15;;
51594;SDS011;37677;53.254;6.594;2022-09-27T03:35:35;6.82;;;1.20;;
51594;SDS011;37677;53.254;6.594;2022-09-27T03:38:01;7.07;;;1.20;;
51594;SDS011;37677;53.254;6.594;2022-09-27T03:40:27;7.15;;;1.50;;
51594;SDS011;37677;53.254;6.594;2022-09-27T03:42:53;3.55;;;1.00;;
51594;SDS011;37677;53.254;6.594;2022-09-27T03:45:19;5.63;;;1.38;;
51594;SDS011;37677;53.254;6.594;2022-09-27T03:47:45;3.53;;;1.15;;
51594;SDS011;37677;53.254;6.594;2022-09-27T03:50:12;4.78;;;0.80;;
51594;SDS011;37677;53.254;6.594;2022-09-27T03:52:38;3.95;;;0.85;;
51594;SDS011;37677;53.254;6.594;2022-09-27T03:55:07;8.38;;;1.58;;
51594;SDS011;37677;53.254;6.594;2022-09-27T03:57:33;3.88;;;1.00;;
51594;SDS011;37677;53.254;6.594;2022-09-27T03:59:58;7.53;;;1.08;;
51594;SDS011;37677;53.254;6.594;2022-09-27T04:02:25;5.38;;;1.25;;
51594;SDS011;37677;53.254;6.594;2022-09-27T04:04:51;8.90;;;1.50;;
51594;SDS011;37677;53.254;6.594;2022-09-27T04:07:17;9.15;;;1.67;;
51594;SDS011;37677;53.254;6.594;2022-09-27T04:09:43;8.25;;;1.30;;
51594;SDS011;37677;53.254;6.594;2022-09-27T04:12:11;7.70;;;1.98;;
51594;SDS011;37677;53.254;6.594;2022-09-27T04:14:37;5.10;;;1.80;;
51594;SDS011;37677;53.254;6.594;2022-09-27T04:17:02;9.30;;;1.67;;
51594;SDS011;37677;53.254;6.594;2022-09-27T04:19:28;6.10;;;1.30;;
51594;SDS011;37677;53.254;6.594;2022-09-27T04:21:54;5.75;;;1.40;;
51594;SDS011;37677;53.254;6.594;2022-09-27T04:24:19;6.40;;;1.85;;
51594;SDS011;37677;53.254;6.594;2022-09-27T04:26:45;7.32;;;1.23;;
51594;SDS011;37677;53.254;6.594;2022-09-27T04:29:13;10.95;;;1.95;;
51594;SDS011;37677;53.254;6.594;2022-09-27T04:31:40;8.90;;;1.40;;
51594;SDS011;37677;53.254;6.594;2022-09-27T04:34:05;11.27;;;1.98;;
51594;SDS011;37677;53.254;6.594;2022-09-27T04:36:31;11.15;;;2.03;;
51594;SDS011;37677;53.254;6.594;2022-09-27T04:38:57;6.38;;;1.38;;
51594;SDS011;37677;53.254;6.594;2022-09-27T04:41:25;7.43;;;1.50;;
51594;SDS011;37677;53.254;6.594;2022-09-27T04:43:52;6.80;;;1.77;;
51594;SDS011;37677;53.254;6.594;2022-09-27T04:46:19;8.68;;;1.67;;
51594;SDS011;37677;53.254;6.594;2022-09-27T04:48:45;7.97;;;1.30;;
51594;SDS011;37677;53.254;6.594;2022-09-27T04:51:12;11.88;;;1.65;;
51594;SDS011;37677;53.254;6.594;2022-09-27T04:53:38;3.92;;;1.35;;
51594;SDS011;37677;53.254;6.594;2022-09-27T04:56:04;8.70;;;1.50;;
51594;SDS011;37677;53.254;6.594;2022-09-27T04:58:31;5.72;;;1.20;;
51594;SDS011;37677;53.254;6.594;2022-09-27T05:00:58;7.10;;;1.20;;
51594;SDS011;37677;53.254;6.594;2022-09-27T05:03:26;8.07;;;1.40;;
51594;SDS011;37677;53.254;6.594;2022-09-27T05:05:52;8.38;;;1.58;;
51594;SDS011;37677;53.254;6.594;2022-09-27T05:08:18;7.28;;;1.42;;
51594;SDS011;37677;53.254;6.594;2022-09-27T05:10:45;6.20;;;1.50;;
51594;SDS011;37677;53.254;6.594;2022-09-27T05:13:11;10.15;;;1.50;;
51594;SDS011;37677;53.254;6.594;2022-09-27T05:15:38;7.68;;;1.50;;
51594;SDS011;37677;53.254;6.594;2022-09-27T05:18:04;7.13;;;1.48;;
51594;SDS011;37677;53.254;6.594;2022-09-27T05:20:32;4.95;;;1.30;;
51594;SDS011;37677;53.254;6.594;2022-09-27T05:22:58;4.50;;;1.35;;
51594;SDS011;37677;53.254;6.594;2022-09-27T05:25:24;6.63;;;1.27;;
51594;SDS011;37677;53.254;6.594;2022-09-27T05:27:50;4.63;;;1.40;;
51594;SDS011;37677;53.254;6.594;2022-09-27T05:30:16;8.93;;;1.60;;
51594;SDS011;37677;53.254;6.594;2022-09-27T05:32:42;5.70;;;1.10;;
51594;SDS011;37677;53.254;6.594;2022-09-27T05:35:09;6.70;;;1.38;;
51594;SDS011;37677;53.254;6.594;2022-09-27T05:37:35;7.72;;;1.60;;
51594;SDS011;37677;53.254;6.594;2022-09-27T05:40:01;5.45;;;1.35;;
51594;SDS011;37677;53.254;6.594;2022-09-27T05:42:27;8.00;;;1.85;;
51594;SDS011;37677;53.254;6.594;2022-09-27T05:44:52;6.47;;;1.30;;
51594;SDS011;37677;53.254;6.594;2022-09-27T05:47:18;9.07;;;1.70;;
51594;SDS011;37677;53.254;6.594;2022-09-27T05:49:44;9.82;;;1.67;;
51594;SDS011;37677;53.254;6.594;2022-09-27T05:52:09;8.95;;;1.73;;
51594;SDS011;37677;53.254;6.594;2022-09-27T05:54:35;13.40;;;3.03;;
51594;SDS011;37677;53.254;6.594;2022-09-27T05:57:01;8.05;;;1.75;;
51594;SDS011;37677;53.254;6.594;2022-09-27T05:59:27;10.57;;;1.67;;
51594;SDS011;37677;53.254;6.594;2022-09-27T06:01:53;7.20;;;1.50;;
51594;SDS011;37677;53.254;6.594;2022-09-27T06:04:19;12.15;;;2.00;;
51594;SDS011;37677;53.254;6.594;2022-09-27T06:06:48;13.18;;;2.17;;
51594;SDS011;37677;53.254;6.594;2022-09-27T06:09:15;10.77;;;1.73;;
51594;SDS011;37677;53.254;6.594;2022-09-27T06:11:41;6.55;;;1.40;;
51594;SDS011;37677;53.254;6.594;2022-09-27T06:14:09;9.32;;;1.50;;
51594;SDS011;37677;53.254;6.594;2022-09-27T06:16:36;6.82;;;1.90;;
51594;SDS011;37677;53.254;6.594;2022-09-27T06:19:01;6.93;;;1.55;;
51594;SDS011;37677;53.254;6.594;2022-09-27T06:21:28;7.18;;;1.73;;
51594;SDS011;37677;53.254;6.594;2022-09-27T06:23:56;5.30;;;1.30;;
51594;SDS011;37677;53.254;6.594;2022-09-27T06:26:24;7.15;;;1.23;;
51594;SDS011;37677;53.254;6.594;2022-09-27T06:28:54;5.35;;;1.38;;
51594;SDS011;37677;53.254;6.594;2022-09-27T06:31:20;9.00;;;1.65;;
51594;SDS011;37677;53.254;6.594;2022-09-27T06:33:47;8.43;;;1.67;;
51594;SDS011;37677;53.254;6.594;2022-09-27T06:36:14;7.68;;;1.83;;
51594;SDS011;37677;53.254;6.594;2022-09-27T06:38:40;10.18;;;1.70;;
51594;SDS011;37677;53.254;6.594;2022-09-27T06:41:06;8.82;;;1.75;;
51594;SDS011;37677;53.254;6.594;2022-09-27T06:43:33;12.75;;;2.00;;
51594;SDS011;37677;53.254;6.594;2022-09-27T06:45:59;5.07;;;1.50;;
51594;SDS011;37677;53.254;6.594;2022-09-27T06:48:30;4.20;;;1.20;;
51594;SDS011;37677;53.254;6.594;2022-09-27T06:50:56;9.60;;;1.60;;
51594;SDS011;37677;53.254;6.594;2022-09-27T06:53:22;9.15;;;1.83;;
51594;SDS011;37677;53.254;6.594;2022-09-27T06:55:48;6.43;;;1.38;;
51594;SDS011;37677;53.254;6.594;2022-09-27T06:58:15;8.10;;;1.75;;
51594;SDS011;37677;53.254;6.594;2022-09-27T07:01:00;4.15;;;1.60;;
51594;SDS011;37677;53.254;6.594;2022-09-27T07:03:27;10.48;;;1.88;;
51594;SDS011;37677;53.254;6.594;2022-09-27T07:05:57;4.78;;;1.23;;
51594;SDS011;37677;53.254;6.594;2022-09-27T07:08:24;7.18;;;1.70;;
51594;SDS011;37677;53.254;6.594;2022-09-27T07:10:51;9.48;;;2.15;;
51594;SDS011;37677;53.254;6.594;2022-09-27T07:13:19;16.77;;;1.83;;
51594;SDS011;37677;53.254;6.594;2022-09-27T07:15:45;15.60;;;1.90;;
51594;SDS011;37677;53.254;6.594;2022-09-27T07:18:11;21.85;;;2.22;;
51594;SDS011;37677;53.254;6.594;2022-09-27T07:20:37;23.77;;;2.30;;
51594;SDS011;37677;53.254;6.594;2022-09-27T07:23:04;7.38;;;1.73;;
51594;SDS011;37677;53.254;6.594;2022-09-27T07:25:31;14.68;;;2.28;;
51594;SDS011;37677;53.254;6.594;2022-09-27T07:28:01;9.70;;;2.55;;
51594;SDS011;37677;53.254;6.594;2022-09-27T07:30:29;11.25;;;2.90;;
51594;SDS011;37677;53.254;6.594;2022-09-27T07:33:01;9.90;;;2.28;;
51594;SDS011;37677;53.254;6.594;2022-09-27T07:35:28;8.73;;;2.40;;
51594;SDS011;37677;53.254;6.594;2022-09-27T07:37:54;9.07;;;1.80;;
51594;SDS011;37677;53.254;6.594;2022-09-27T07:40:21;10.38;;;1.85;;
51594;SDS011;37677;53.254;6.594;2022-09-27T07:42:49;7.10;;;1.73;;
51594;SDS011;37677;53.254;6.594;2022-09-27T07:45:19;10.32;;;2.15;;
51594;SDS011;37677;53.254;6.594;2022-09-27T07:47:44;5.00;;;1.63;;
51594;SDS011;37677;53.254;6.594;2022-09-27T07:50:11;4.32;;;1.60;;
51594;SDS011;37677;53.254;6.594;2022-09-27T07:52:38;9.73;;;1.70;;
51594;SDS011;37677;53.254;6.594;2022-09-27T07:55:08;4.63;;;1.38;;
51594;SDS011;37677;53.254;6.594;2022-09-27T07:57:35;8.27;;;2.38;;
51594;SDS011;37677;53.254;6.594;2022-09-27T08:00:05;7.57;;;1.10;;
51594;SDS011;37677;53.254;6.594;2022-09-27T08:02:33;4.38;;;1.30;;
51594;SDS011;37677;53.254;6.594;2022-09-27T08:04:59;4.70;;;1.20;;
51594;SDS011;37677;53.254;6.594;2022-09-27T08:07:25;4.80;;;1.23;;
51594;SDS011;37677;53.254;6.594;2022-09-27T08:09:51;3.28;;;1.30;;
51594;SDS011;37677;53.254;6.594;2022-09-27T08:12:17;4.75;;;1.20;;
51594;SDS011;37677;53.254;6.594;2022-09-27T08:14:45;5.15;;;1.42;;
51594;SDS011;37677;53.254;6.594;2022-09-27T08:17:12;5.03;;;1.55;;
51594;SDS011;37677;53.254;6.594;2022-09-27T08:19:38;5.63;;;1.40;;
51594;SDS011;37677;53.254;6.594;2022-09-27T08:22:05;2.70;;;1.00;;
51594;SDS011;37677;53.254;6.594;2022-09-27T08:24:31;3.47;;;1.02;;
51594;SDS011;37677;53.254;6.594;2022-09-27T08:26:57;5.25;;;1.00;;
51594;SDS011;37677;53.254;6.594;2022-09-27T08:29:23;3.70;;;1.17;;
51594;SDS011;37677;53.254;6.594;2022-09-27T08:31:51;2.17;;;0.93;;
51594;SDS011;37677;53.254;6.594;2022-09-27T08:34:18;9.00;;;1.50;;
51594;SDS011;37677;53.254;6.594;2022-09-27T08:36:45;19.50;;;1.67;;
51594;SDS011;37677;53.254;6.594;2022-09-27T08:39:11;7.13;;;1.48;;
51594;SDS011;37677;53.254;6.594;2022-09-27T08:41:43;2.50;;;1.10;;
51594;SDS011;37677;53.254;6.594;2022-09-27T08:47:08;9.52;;;1.35;;
51594;SDS011;37677;53.254;6.594;2022-09-27T08:52:07;7.95;;;1.40;;
51594;SDS011;37677;53.254;6.594;2022-09-27T08:54:48;10.25;;;1.30;;
51594;SDS011;37677;53.254;6.594;2022-09-27T08:57:15;8.85;;;1.35;;
51594;SDS011;37677;53.254;6.594;2022-09-27T08:59:47;9.63;;;1.33;;
51594;SDS011;37677;53.254;6.594;2022-09-27T09:02:19;3.75;;;1.00;;
51594;SDS011;37677;53.254;6.594;2022-09-27T09:04:50;5.60;;;1.20;;
51594;SDS011;37677;53.254;6.594;2022-09-27T09:18:21;6.07;;;1.23;;
51594;SDS011;37677;53.254;6.594;2022-09-27T09:27:27;4.63;;;1.23;;
51594;SDS011;37677;53.254;6.594;2022-09-27T09:40:59;6.85;;;1.30;;
51594;SDS011;37677;53.254;6.594;2022-09-27T09:43:38;10.55;;;1.65;;
51594;SDS011;37677;53.254;6.594;2022-09-27T09:46:11;5.00;;;1.25;;
51594;SDS011;37677;53.254;6.594;2022-09-27T09:48:46;3.90;;;1.00;;
51594;SDS011;37677;53.254;6.594;2022-09-27T09:51:29;5.35;;;1.30;;
51594;SDS011;37677;53.254;6.594;2022-09-27T09:54:13;4.45;;;1.00;;
51594;SDS011;37677;53.254;6.594;2022-09-27T09:57:05;3.10;;;1.23;;
51594;SDS011;37677;53.254;6.594;2022-09-27T09:59:37;11.35;;;1.15;;
51594;SDS011;37677;53.254;6.594;2022-09-27T10:04:57;7.93;;;1.30;;
51594;SDS011;37677;53.254;6.594;2022-09-27T10:07:23;9.63;;;1.33;;
51594;SDS011;37677;53.254;6.594;2022-09-27T10:09:51;12.85;;;2.05;;
51594;SDS011;37677;53.254;6.594;2022-09-27T10:12:21;15.98;;;1.38;;
51594;SDS011;37677;53.254;6.594;2022-09-27T10:14:47;17.88;;;1.40;;
51594;SDS011;37677;53.254;6.594;2022-09-27T10:17:22;5.85;;;1.25;;
51594;SDS011;37677;53.254;6.594;2022-09-27T10:19:52;13.25;;;1.65;;
51594;SDS011;37677;53.254;6.594;2022-09-27T10:22:27;11.55;;;1.45;;
51594;SDS011;37677;53.254;6.594;2022-09-27T10:25:02;5.88;;;1.10;;
51594;SDS011;37677;53.254;6.594;2022-09-27T10:30:03;4.65;;;1.10;;
51594;SDS011;37677;53.254;6.594;2022-09-27T10:32:31;8.73;;;1.23;;
51594;SDS011;37677;53.254;6.594;2022-09-27T10:38:36;3.85;;;1.55;;
51594;SDS011;37677;53.254;6.594;2022-09-27T10:40:44;6.22;;;1.10;;
51594;SDS011;37677;53.254;6.594;2022-09-27T10:46:05;7.97;;;1.52;;
51594;SDS011;37677;53.254;6.594;2022-09-27T10:48:33;3.58;;;0.90;;
51594;SDS011;37677;53.254;6.594;2022-09-27T10:51:00;3.17;;;0.80;;
51594;SDS011;37677;53.254;6.594;2022-09-27T10:53:29;1.45;;;0.80;;
51594;SDS011;37677;53.254;6.594;2022-09-27T10:55:56;0.85;;;0.57;;
51594;SDS011;37677;53.254;6.594;2022-09-27T10:58:33;3.00;;;0.88;;
51594;SDS011;37677;53.254;6.594;2022-09-27T11:01:08;1.98;;;0.70;;
51594;SDS011;37677;53.254;6.594;2022-09-27T11:03:38;2.85;;;0.70;;
51594;SDS011;37677;53.254;6.594;2022-09-27T11:08:47;1.02;;;0.50;;
51594;SDS011;37677;53.254;6.594;2022-09-27T11:11:22;2.90;;;0.95;;
51594;SDS011;37677;53.254;6.594;2022-09-27T11:30:19;5.90;;;0.90;;
51594;SDS011;37677;53.254;6.594;2022-09-27T11:35:32;8.40;;;1.00;;
51594;SDS011;37677;53.254;6.594;2022-09-27T11:46:58;2.28;;;0.80;;
51594;SDS011;37677;53.254;6.594;2022-09-27T11:50:09;2.35;;;0.70;;
51594;SDS011;37677;53.254;6.594;2022-09-27T11:52:52;5.53;;;0.98;;
51594;SDS011;37677;53.254;6.594;2022-09-27T11:55:36;2.65;;;0.70;;
51594;SDS011;37677;53.254;6.594;2022-09-27T12:01:05;0.85;;;0.50;;
51594;SDS011;37677;53.254;6.594;2022-09-27T12:06:36;0.47;;;0.40;;
51594;SDS011;37677;53.254;6.594;2022-09-27T12:09:39;1.65;;;0.63;;
51594;SDS011;37677;53.254;6.594;2022-09-27T12:12:09;1.75;;;0.60;;
51594;SDS011;37677;53.254;6.594;2022-09-27T12:17:26;1.55;;;0.80;;
51594;SDS011;37677;53.254;6.594;2022-09-27T12:20:09;1.88;;;0.60;;
51594;SDS011;37677;53.254;6.594;2022-09-27T12:23:03;0.30;;;0.30;;
51594;SDS011;37677;53.254;6.594;2022-09-27T12:25:38;1.13;;;0.57;;
51594;SDS011;37677;53.254;6.594;2022-09-27T12:31:17;1.05;;;0.60;;
51594;SDS011;37677;53.254;6.594;2022-09-27T12:36:33;1.05;;;0.60;;
51594;SDS011;37677;53.254;6.594;2022-09-27T12:41:54;3.00;;;0.80;;
51594;SDS011;37677;53.254;6.594;2022-09-27T12:44:27;6.75;;;0.75;;
51594;SDS011;37677;53.254;6.594;2022-09-27T12:52:46;3.45;;;0.95;;
51594;SDS011;37677;53.254;6.594;2022-09-27T13:00:29;3.58;;;0.95;;
51594;SDS011;37677;53.254;6.594;2022-09-27T13:11:19;6.68;;;2.05;;
51594;SDS011;37677;53.254;6.594;2022-09-27T13:14:03;4.22;;;0.98;;
51594;SDS011;37677;53.254;6.594;2022-09-27T13:16:30;3.38;;;1.00;;
51594;SDS011;37677;53.254;6.594;2022-09-27T13:22:00;3.55;;;0.80;;
51594;SDS011;37677;53.254;6.594;2022-09-27T13:27:29;6.50;;;1.20;;
51594;SDS011;37677;53.254;6.594;2022-09-27T13:29:52;1.95;;;0.73;;
51594;SDS011;37677;53.254;6.594;2022-09-27T13:32:37;3.00;;;0.75;;
51594;SDS011;37677;53.254;6.594;2022-09-27T13:37:45;2.50;;;0.85;;
51594;SDS011;37677;53.254;6.594;2022-09-27T13:49:02;2.88;;;0.93;;
51594;SDS011;37677;53.254;6.594;2022-09-27T13:53:40;2.50;;;1.00;;
51594;SDS011;37677;53.254;6.594;2022-09-27T13:59:03;2.17;;;0.80;;
51594;SDS011;37677;53.254;6.594;2022-09-27T14:04:04;3.70;;;0.80;;
51594;SDS011;37677;53.254;6.594;2022-09-27T14:06:57;2.65;;;0.85;;
51594;SDS011;37677;53.254;6.594;2022-09-27T14:09:29;4.70;;;1.08;;
51594;SDS011;37677;53.254;6.594;2022-09-27T14:14:30;4.80;;;0.90;;
51594;SDS011;37677;53.254;6.594;2022-09-27T14:16:58;1.92;;;0.80;;
51594;SDS011;37677;53.254;6.594;2022-09-27T14:19:24;2.67;;;1.02;;
51594;SDS011;37677;53.254;6.594;2022-09-27T14:21:51;4.70;;;1.30;;
51594;SDS011;37677;53.254;6.594;2022-09-27T14:29:50;3.63;;;0.80;;
51594;SDS011;37677;53.254;6.594;2022-09-27T14:32:21;2.50;;;1.20;;
51594;SDS011;37677;53.254;6.594;2022-09-27T14:38:00;2.47;;;1.10;;
51594;SDS011;37677;53.254;6.594;2022-09-27T14:40:28;5.05;;;1.10;;
51594;SDS011;37677;53.254;6.594;2022-09-27T14:42:55;2.65;;;1.13;;
51594;SDS011;37677;53.254;6.594;2022-09-27T14:45:25;2.40;;;0.85;;
51594;SDS011;37677;53.254;6.594;2022-09-27T14:47:58;2.60;;;1.02;;
51594;SDS011;37677;53.254;6.594;2022-09-27T14:50:25;3.03;;;1.05;;
51594;SDS011;37677;53.254;6.594;2022-09-27T14:52:54;1.23;;;0.82;;
51594;SDS011;37677;53.254;6.594;2022-09-27T14:55:23;2.88;;;0.82;;
51594;SDS011;37677;53.254;6.594;2022-09-27T14:57:55;3.25;;;0.70;;
51594;SDS011;37677;53.254;6.594;2022-09-27T15:00:27;6.45;;;1.10;;
51594;SDS011;37677;53.254;6.594;2022-09-27T15:02:56;2.40;;;1.08;;
51594;SDS011;37677;53.254;6.594;2022-09-27T15:05:28;2.78;;;1.02;;
51594;SDS011;37677;53.254;6.594;2022-09-27T15:07:57;1.80;;;0.75;;
51594;SDS011;37677;53.254;6.594;2022-09-27T15:10:29;5.57;;;1.17;;
51594;SDS011;37677;53.254;6.594;2022-09-27T15:12:57;5.43;;;1.15;;
51594;SDS011;37677;53.254;6.594;2022-09-27T15:15:43;4.15;;;1.52;;
51594;SDS011;37677;53.254;6.594;2022-09-27T15:20:54;4.63;;;2.00;;
51594;SDS011;37677;53.254;6.594;2022-09-27T15:23:25;4.68;;;1.75;;
51594;SDS011;37677;53.254;6.594;2022-09-27T15:26:12;8.20;;;3.03;;
51594;SDS011;37677;53.254;6.594;2022-09-27T15:28:44;5.85;;;3.17;;
51594;SDS011;37677;53.254;6.594;2022-09-27T15:31:12;6.85;;;3.88;;
51594;SDS011;37677;53.254;6.594;2022-09-27T15:33:39;7.20;;;3.97;;
51594;SDS011;37677;53.254;6.594;2022-09-27T15:36:07;4.88;;;1.80;;
51594;SDS011;37677;53.254;6.594;2022-09-27T15:38:35;5.00;;;1.90;;
51594;SDS011;37677;53.254;6.594;2022-09-27T15:43:45;5.40;;;2.10;;
51594;SDS011;37677;53.254;6.594;2022-09-27T15:51:50;5.30;;;2.25;;
51594;SDS011;37677;53.254;6.594;2022-09-27T15:54:18;8.02;;;3.50;;
51594;SDS011;37677;53.254;6.594;2022-09-27T15:56:46;7.28;;;2.25;;
51594;SDS011;37677;53.254;6.594;2022-09-27T15:59:18;2.97;;;1.77;;
51594;SDS011;37677;53.254;6.594;2022-09-27T16:01:45;4.82;;;1.73;;
51594;SDS011;37677;53.254;6.594;2022-09-27T16:04:12;4.18;;;1.90;;
51594;SDS011;37677;53.254;6.594;2022-09-27T16:06:37;6.40;;;1.88;;
51594;SDS011;37677;53.254;6.594;2022-09-27T16:09:08;3.63;;;1.30;;
51594;SDS011;37677;53.254;6.594;2022-09-27T16:11:46;4.15;;;1.35;;
51594;SDS011;37677;53.254;6.594;2022-09-27T16:14:13;5.65;;;1.73;;
51594;SDS011;37677;53.254;6.594;2022-09-27T16:16:43;8.70;;;1.88;;
51594;SDS011;37677;53.254;6.594;2022-09-27T16:19:14;10.45;;;2.22;;
51594;SDS011;37677;53.254;6.594;2022-09-27T16:21:39;3.53;;;1.60;;
51594;SDS011;37677;53.254;6.594;2022-09-27T16:24:07;2.85;;;1.70;;
51594;SDS011;37677;53.254;6.594;2022-09-27T16:26:36;3.00;;;1.65;;
51594;SDS011;37677;53.254;6.594;2022-09-27T16:29:03;2.72;;;1.42;;
51594;SDS011;37677;53.254;6.594;2022-09-27T16:31:29;3.05;;;1.70;;
51594;SDS011;37677;53.254;6.594;2022-09-27T16:33:55;4.43;;;1.90;;
51594;SDS011;37677;53.254;6.594;2022-09-27T16:36:20;5.30;;;1.60;;
51594;SDS011;37677;53.254;6.594;2022-09-27T16:38:47;2.72;;;1.30;;
51594;SDS011;37677;53.254;6.594;2022-09-27T16:41:17;5.93;;;1.70;;
51594;SDS011;37677;53.254;6.594;2022-09-27T16:43:44;4.78;;;1.42;;
51594;SDS011;37677;53.254;6.594;2022-09-27T16:46:11;6.95;;;1.85;;
51594;SDS011;37677;53.254;6.594;2022-09-27T16:48:40;3.90;;;1.63;;
51594;SDS011;37677;53.254;6.594;2022-09-27T16:51:16;5.22;;;1.60;;
51594;SDS011;37677;53.254;6.594;2022-09-27T16:54:02;4.00;;;1.73;;
51594;SDS011;37677;53.254;6.594;2022-09-27T16:56:30;6.00;;;2.30;;
51594;SDS011;37677;53.254;6.594;2022-09-27T16:59:00;4.30;;;1.75;;
51594;SDS011;37677;53.254;6.594;2022-09-27T17:01:32;6.15;;;2.40;;
51594;SDS011;37677;53.254;6.594;2022-09-27T17:03:58;7.53;;;2.83;;
51594;SDS011;37677;53.254;6.594;2022-09-27T17:06:24;2.28;;;1.35;;
51594;SDS011;37677;53.254;6.594;2022-09-27T17:08:52;3.40;;;1.58;;
51594;SDS011;37677;53.254;6.594;2022-09-27T17:11:19;5.55;;;1.30;;
51594;SDS011;37677;53.254;6.594;2022-09-27T17:13:45;3.10;;;1.17;;
51594;SDS011;37677;53.254;6.594;2022-09-27T17:16:13;5.25;;;1.40;;
51594;SDS011;37677;53.254;6.594;2022-09-27T17:18:39;5.65;;;1.20;;
51594;SDS011;37677;53.254;6.594;2022-09-27T17:21:06;7.85;;;1.30;;
51594;SDS011;37677;53.254;6.594;2022-09-27T17:23:33;2.70;;;0.90;;
51594;SDS011;37677;53.254;6.594;2022-09-27T17:26:06;2.53;;;1.00;;
51594;SDS011;37677;53.254;6.594;2022-09-27T17:28:38;3.10;;;1.20;;
51594;SDS011;37677;53.254;6.594;2022-09-27T17:31:05;2.92;;;0.90;;
51594;SDS011;37677;53.254;6.594;2022-09-27T17:33:34;3.70;;;1.02;;
51594;SDS011;37677;53.254;6.594;2022-09-27T17:36:19;3.87;;;1.17;;
51594;SDS011;37677;53.254;6.594;2022-09-27T17:38:47;2.92;;;1.10;;
51594;SDS011;37677;53.254;6.594;2022-09-27T17:41:15;3.20;;;1.30;;
51594;SDS011;37677;53.254;6.594;2022-09-27T17:43:42;4.90;;;1.17;;
51594;SDS011;37677;53.254;6.594;2022-09-27T17:46:19;5.35;;;1.50;;
51594;SDS011;37677;53.254;6.594;2022-09-27T17:48:46;4.55;;;1.67;;
51594;SDS011;37677;53.254;6.594;2022-09-27T17:51:31;5.22;;;1.20;;
51594;SDS011;37677;53.254;6.594;2022-09-27T17:53:58;2.72;;;1.00;;
51594;SDS011;37677;53.254;6.594;2022-09-27T17:56:24;3.50;;;1.15;;
51594;SDS011;37677;53.254;6.594;2022-09-27T17:58:54;4.35;;;1.65;;
51594;SDS011;37677;53.254;6.594;2022-09-27T18:01:20;2.33;;;1.38;;
51594;SDS011;37677;53.254;6.594;2022-09-27T18:03:51;5.22;;;1.75;;
51594;SDS011;37677;53.254;6.594;2022-09-27T18:06:18;6.80;;;1.63;;
51594;SDS011;37677;53.254;6.594;2022-09-27T18:08:44;3.65;;;1.27;;
51594;SDS011;37677;53.254;6.594;2022-09-27T18:11:13;3.08;;;1.30;;
51594;SDS011;37677;53.254;6.594;2022-09-27T18:13:41;5.32;;;1.23;;
51594;SDS011;37677;53.254;6.594;2022-09-27T18:16:08;2.40;;;1.20;;
51594;SDS011;37677;53.254;6.594;2022-09-27T18:18:36;3.58;;;1.40;;
51594;SDS011;37677;53.254;6.594;2022-09-27T18:21:04;2.78;;;1.65;;
51594;SDS011;37677;53.254;6.594;2022-09-27T18:23:36;9.73;;;1.70;;
51594;SDS011;37677;53.254;6.594;2022-09-27T18:26:02;3.65;;;1.80;;